sensor_id;sensor_type;location;lat;lon;timestamp;P1;durP1;ratioP1;P2;durP2;ratioP2
21769;SDS011;11046;49.558;8.674;2023-08-06T00:00:00;5.00;;;3.17;;
21769;SDS011;11046;49.558;8.674;2023-08-06T00:03:01;5.10;;;2.92;;
21769;SDS011;11046;49.558;8.674;2023-08-06T00:06:01;3.40;;;2.97;;
21769;SDS011;11046;49.558;8.674;2023-08-06T00:09:02;4.93;;;3.30;;
21769;SDS011;11046;49.558;8.674;2023-08-06T00:12:03;9.93;;;3.25;;
21769;SDS011;11046;49.558;8.674;2023-08-06T00:15:04;4.50;;;3.20;;
21769;SDS011;11046;49.558;8.674;2023-08-06T00:18:05;3.72;;;2.90;;
21769;SDS011;11046;49.558;8.674;2023-08-06T00:21:05;5.47;;;3.50;;
21769;SDS011;11046;49.558;8.674;2023-08-06T00:24:06;5.28;;;3.17;;
21769;SDS011;11046;49.558;8.674;2023-08-06T00:27:06;4.32;;;3.08;;
21769;SDS011;11046;49.558;8.674;2023-08-06T00:30:07;3.40;;;3.00;;
21769;SDS011;11046;49.558;8.674;2023-08-06T00:33:08;9.68;;;3.10;;
21769;SDS011;11046;49.558;8.674;2023-08-06T00:36:08;6.30;;;3.25;;
21769;SDS011;11046;49.558;8.674;2023-08-06T00:39:09;3.83;;;2.58;;
21769;SDS011;11046;49.558;8.674;2023-08-06T00:42:10;4.20;;;2.90;;
21769;SDS011;11046;49.558;8.674;2023-08-06T00:45:12;5.72;;;3.20;;
21769;SDS011;11046;49.558;8.674;2023-08-06T00:48:13;3.55;;;2.75;;
21769;SDS011;11046;49.558;8.674;2023-08-06T00:51:14;11.60;;;3.10;;
21769;SDS011;11046;49.558;8.674;2023-08-06T00:54:15;4.35;;;2.53;;
21769;SDS011;11046;49.558;8.674;2023-08-06T00:57:16;5.35;;;2.80;;
21769;SDS011;11046;49.558;8.674;2023-08-06T01:00:17;3.88;;;2.65;;
21769;SDS011;11046;49.558;8.674;2023-08-06T01:03:18;4.97;;;2.92;;
21769;SDS011;11046;49.558;8.674;2023-08-06T01:06:19;3.35;;;2.40;;
21769;SDS011;11046;49.558;8.674;2023-08-06T01:10:35;4.70;;;2.78;;
21769;SDS011;11046;49.558;8.674;2023-08-06T01:13:38;4.30;;;2.70;;
21769;SDS011;11046;49.558;8.674;2023-08-06T01:16:52;5.43;;;2.70;;
21769;SDS011;11046;49.558;8.674;2023-08-06T01:19:55;2.90;;;2.53;;
21769;SDS011;11046;49.558;8.674;2023-08-06T01:22:56;2.92;;;2.45;;
21769;SDS011;11046;49.558;8.674;2023-08-06T01:26:19;3.50;;;2.25;;
21769;SDS011;11046;49.558;8.674;2023-08-06T01:29:31;3.25;;;2.15;;
21769;SDS011;11046;49.558;8.674;2023-08-06T01:32:38;5.57;;;2.72;;
21769;SDS011;11046;49.558;8.674;2023-08-06T01:35:42;3.72;;;2.60;;
21769;SDS011;11046;49.558;8.674;2023-08-06T01:38:43;7.05;;;2.50;;
21769;SDS011;11046;49.558;8.674;2023-08-06T01:41:43;3.53;;;2.40;;
21769;SDS011;11046;49.558;8.674;2023-08-06T01:44:44;4.65;;;2.88;;
21769;SDS011;11046;49.558;8.674;2023-08-06T01:47:45;3.60;;;2.60;;
21769;SDS011;11046;49.558;8.674;2023-08-06T01:50:45;3.78;;;2.50;;
21769;SDS011;11046;49.558;8.674;2023-08-06T01:53:46;4.80;;;2.30;;
21769;SDS011;11046;49.558;8.674;2023-08-06T01:56:47;4.07;;;2.30;;
21769;SDS011;11046;49.558;8.674;2023-08-06T01:59:47;4.00;;;2.53;;
21769;SDS011;11046;49.558;8.674;2023-08-06T02:02:48;6.93;;;2.60;;
21769;SDS011;11046;49.558;8.674;2023-08-06T02:05:48;2.75;;;2.20;;
21769;SDS011;11046;49.558;8.674;2023-08-06T02:08:49;3.03;;;2.45;;
21769;SDS011;11046;49.558;8.674;2023-08-06T02:11:50;4.53;;;2.30;;
21769;SDS011;11046;49.558;8.674;2023-08-06T02:14:51;5.70;;;2.63;;
21769;SDS011;11046;49.558;8.674;2023-08-06T02:17:52;5.35;;;2.50;;
21769;SDS011;11046;49.558;8.674;2023-08-06T02:20:59;4.15;;;2.20;;
21769;SDS011;11046;49.558;8.674;2023-08-06T02:23:59;6.80;;;2.33;;
21769;SDS011;11046;49.558;8.674;2023-08-06T02:27:00;4.15;;;2.20;;
21769;SDS011;11046;49.558;8.674;2023-08-06T02:30:01;3.22;;;2.55;;
21769;SDS011;11046;49.558;8.674;2023-08-06T02:33:03;4.00;;;2.75;;
21769;SDS011;11046;49.558;8.674;2023-08-06T02:36:04;7.93;;;2.50;;
21769;SDS011;11046;49.558;8.674;2023-08-06T02:39:05;2.88;;;2.22;;
21769;SDS011;11046;49.558;8.674;2023-08-06T02:42:06;3.65;;;2.35;;
21769;SDS011;11046;49.558;8.674;2023-08-06T02:45:07;5.47;;;2.58;;
21769;SDS011;11046;49.558;8.674;2023-08-06T02:48:08;4.00;;;2.60;;
21769;SDS011;11046;49.558;8.674;2023-08-06T02:51:09;3.60;;;2.63;;
21769;SDS011;11046;49.558;8.674;2023-08-06T02:54:10;5.55;;;2.67;;
21769;SDS011;11046;49.558;8.674;2023-08-06T02:57:10;5.35;;;2.50;;
21769;SDS011;11046;49.558;8.674;2023-08-06T03:00:11;6.22;;;2.20;;
21769;SDS011;11046;49.558;8.674;2023-08-06T03:03:13;5.35;;;2.40;;
21769;SDS011;11046;49.558;8.674;2023-08-06T03:06:20;3.83;;;2.25;;
21769;SDS011;11046;49.558;8.674;2023-08-06T03:09:24;4.95;;;2.45;;
21769;SDS011;11046;49.558;8.674;2023-08-06T03:12:26;4.90;;;2.53;;
21769;SDS011;11046;49.558;8.674;2023-08-06T03:15:27;3.40;;;2.20;;
21769;SDS011;11046;49.558;8.674;2023-08-06T03:18:28;3.15;;;2.30;;
21769;SDS011;11046;49.558;8.674;2023-08-06T03:21:31;4.43;;;2.45;;
21769;SDS011;11046;49.558;8.674;2023-08-06T03:24:33;4.78;;;2.17;;
21769;SDS011;11046;49.558;8.674;2023-08-06T03:27:34;4.15;;;2.50;;
21769;SDS011;11046;49.558;8.674;2023-08-06T03:30:36;3.70;;;2.42;;
21769;SDS011;11046;49.558;8.674;2023-08-06T03:33:37;8.77;;;2.70;;
21769;SDS011;11046;49.558;8.674;2023-08-06T03:36:41;6.38;;;2.47;;
21769;SDS011;11046;49.558;8.674;2023-08-06T03:39:42;4.53;;;2.33;;
21769;SDS011;11046;49.558;8.674;2023-08-06T03:42:43;3.78;;;2.13;;
21769;SDS011;11046;49.558;8.674;2023-08-06T03:45:43;5.20;;;2.38;;
21769;SDS011;11046;49.558;8.674;2023-08-06T03:48:44;6.20;;;2.30;;
21769;SDS011;11046;49.558;8.674;2023-08-06T03:51:46;3.58;;;2.50;;
21769;SDS011;11046;49.558;8.674;2023-08-06T03:54:47;4.72;;;1.95;;
21769;SDS011;11046;49.558;8.674;2023-08-06T03:57:48;5.57;;;2.00;;
21769;SDS011;11046;49.558;8.674;2023-08-06T04:00:56;5.05;;;2.00;;
21769;SDS011;11046;49.558;8.674;2023-08-06T04:03:59;2.60;;;1.80;;
21769;SDS011;11046;49.558;8.674;2023-08-06T04:06:59;3.75;;;1.80;;
21769;SDS011;11046;49.558;8.674;2023-08-06T04:10:02;4.15;;;1.98;;
21769;SDS011;11046;49.558;8.674;2023-08-06T04:13:04;4.50;;;1.98;;
21769;SDS011;11046;49.558;8.674;2023-08-06T04:16:05;5.05;;;2.13;;
21769;SDS011;11046;49.558;8.674;2023-08-06T04:19:07;4.53;;;1.90;;
21769;SDS011;11046;49.558;8.674;2023-08-06T04:22:07;5.70;;;2.20;;
21769;SDS011;11046;49.558;8.674;2023-08-06T04:25:08;4.53;;;2.15;;
21769;SDS011;11046;49.558;8.674;2023-08-06T04:28:09;5.63;;;2.10;;
21769;SDS011;11046;49.558;8.674;2023-08-06T04:31:10;4.28;;;2.40;;
21769;SDS011;11046;49.558;8.674;2023-08-06T04:34:13;4.20;;;2.05;;
21769;SDS011;11046;49.558;8.674;2023-08-06T04:37:14;5.55;;;2.30;;
21769;SDS011;11046;49.558;8.674;2023-08-06T04:40:14;8.00;;;2.20;;
21769;SDS011;11046;49.558;8.674;2023-08-06T04:43:15;5.15;;;2.10;;
21769;SDS011;11046;49.558;8.674;2023-08-06T04:46:15;5.30;;;2.03;;
21769;SDS011;11046;49.558;8.674;2023-08-06T04:49:16;3.88;;;2.40;;
21769;SDS011;11046;49.558;8.674;2023-08-06T04:52:17;4.03;;;2.00;;
21769;SDS011;11046;49.558;8.674;2023-08-06T04:55:18;5.95;;;1.92;;
21769;SDS011;11046;49.558;8.674;2023-08-06T04:58:19;4.00;;;2.22;;
21769;SDS011;11046;49.558;8.674;2023-08-06T05:01:19;5.40;;;2.30;;
21769;SDS011;11046;49.558;8.674;2023-08-06T05:04:20;3.20;;;1.90;;
21769;SDS011;11046;49.558;8.674;2023-08-06T05:07:20;5.30;;;2.00;;
21769;SDS011;11046;49.558;8.674;2023-08-06T05:10:21;5.07;;;1.70;;
21769;SDS011;11046;49.558;8.674;2023-08-06T05:13:21;6.15;;;1.70;;
21769;SDS011;11046;49.558;8.674;2023-08-06T05:16:22;4.65;;;1.52;;
21769;SDS011;11046;49.558;8.674;2023-08-06T05:19:23;5.63;;;1.50;;
21769;SDS011;11046;49.558;8.674;2023-08-06T05:22:24;2.35;;;1.30;;
21769;SDS011;11046;49.558;8.674;2023-08-06T05:25:24;3.67;;;1.30;;
21769;SDS011;11046;49.558;8.674;2023-08-06T05:28:25;3.83;;;1.35;;
21769;SDS011;11046;49.558;8.674;2023-08-06T05:31:26;4.20;;;1.30;;
21769;SDS011;11046;49.558;8.674;2023-08-06T05:34:28;4.82;;;1.10;;
21769;SDS011;11046;49.558;8.674;2023-08-06T05:37:30;3.35;;;1.40;;
21769;SDS011;11046;49.558;8.674;2023-08-06T05:40:32;3.45;;;1.20;;
21769;SDS011;11046;49.558;8.674;2023-08-06T05:43:33;5.47;;;1.45;;
21769;SDS011;11046;49.558;8.674;2023-08-06T05:46:34;3.17;;;1.40;;
21769;SDS011;11046;49.558;8.674;2023-08-06T05:49:35;7.72;;;1.35;;
21769;SDS011;11046;49.558;8.674;2023-08-06T05:52:35;5.55;;;1.50;;
21769;SDS011;11046;49.558;8.674;2023-08-06T05:55:36;5.75;;;1.27;;
21769;SDS011;11046;49.558;8.674;2023-08-06T05:58:39;4.25;;;1.25;;
21769;SDS011;11046;49.558;8.674;2023-08-06T06:01:39;4.93;;;1.38;;
21769;SDS011;11046;49.558;8.674;2023-08-06T06:04:40;4.68;;;1.38;;
21769;SDS011;11046;49.558;8.674;2023-08-06T06:07:41;4.63;;;1.80;;
21769;SDS011;11046;49.558;8.674;2023-08-06T06:10:41;3.38;;;1.30;;
21769;SDS011;11046;49.558;8.674;2023-08-06T06:13:42;2.72;;;1.30;;
21769;SDS011;11046;49.558;8.674;2023-08-06T06:16:42;3.85;;;1.30;;
21769;SDS011;11046;49.558;8.674;2023-08-06T06:19:43;3.55;;;1.20;;
21769;SDS011;11046;49.558;8.674;2023-08-06T06:22:44;4.68;;;1.20;;
21769;SDS011;11046;49.558;8.674;2023-08-06T06:25:50;3.63;;;1.27;;
21769;SDS011;11046;49.558;8.674;2023-08-06T06:28:53;5.85;;;1.33;;
21769;SDS011;11046;49.558;8.674;2023-08-06T06:31:54;3.40;;;1.20;;
21769;SDS011;11046;49.558;8.674;2023-08-06T06:34:55;5.60;;;1.20;;
21769;SDS011;11046;49.558;8.674;2023-08-06T06:37:55;4.30;;;1.05;;
21769;SDS011;11046;49.558;8.674;2023-08-06T06:40:56;6.70;;;1.42;;
21769;SDS011;11046;49.558;8.674;2023-08-06T06:44:01;2.88;;;1.10;;
21769;SDS011;11046;49.558;8.674;2023-08-06T06:47:06;5.47;;;1.23;;
21769;SDS011;11046;49.558;8.674;2023-08-06T06:50:06;2.05;;;1.05;;
21769;SDS011;11046;49.558;8.674;2023-08-06T06:53:07;3.95;;;1.63;;
21769;SDS011;11046;49.558;8.674;2023-08-06T06:56:08;4.63;;;1.55;;
21769;SDS011;11046;49.558;8.674;2023-08-06T06:59:08;3.35;;;1.10;;
21769;SDS011;11046;49.558;8.674;2023-08-06T07:02:09;1.73;;;0.80;;
21769;SDS011;11046;49.558;8.674;2023-08-06T07:05:10;5.13;;;1.20;;
21769;SDS011;11046;49.558;8.674;2023-08-06T07:08:10;4.82;;;1.30;;
21769;SDS011;11046;49.558;8.674;2023-08-06T07:11:11;3.03;;;0.98;;
21769;SDS011;11046;49.558;8.674;2023-08-06T07:14:12;4.32;;;1.00;;
21769;SDS011;11046;49.558;8.674;2023-08-06T07:17:14;1.77;;;0.80;;
21769;SDS011;11046;49.558;8.674;2023-08-06T07:20:15;1.33;;;0.90;;
21769;SDS011;11046;49.558;8.674;2023-08-06T07:23:15;2.92;;;0.95;;
21769;SDS011;11046;49.558;8.674;2023-08-06T07:26:17;3.10;;;0.98;;
21769;SDS011;11046;49.558;8.674;2023-08-06T07:29:18;4.35;;;0.80;;
21769;SDS011;11046;49.558;8.674;2023-08-06T07:32:21;2.50;;;0.80;;
21769;SDS011;11046;49.558;8.674;2023-08-06T07:35:22;0.70;;;0.60;;
21769;SDS011;11046;49.558;8.674;2023-08-06T07:38:22;3.55;;;0.93;;
21769;SDS011;11046;49.558;8.674;2023-08-06T07:41:23;1.25;;;0.80;;
21769;SDS011;11046;49.558;8.674;2023-08-06T07:44:24;1.75;;;0.68;;
21769;SDS011;11046;49.558;8.674;2023-08-06T07:47:24;3.10;;;0.77;;
21769;SDS011;11046;49.558;8.674;2023-08-06T07:50:25;1.45;;;0.70;;
21769;SDS011;11046;49.558;8.674;2023-08-06T07:53:26;3.85;;;0.60;;
21769;SDS011;11046;49.558;8.674;2023-08-06T07:56:27;1.45;;;0.57;;
21769;SDS011;11046;49.558;8.674;2023-08-06T07:59:28;1.38;;;0.60;;
21769;SDS011;11046;49.558;8.674;2023-08-06T08:02:29;2.30;;;0.77;;
21769;SDS011;11046;49.558;8.674;2023-08-06T08:05:30;2.17;;;0.75;;
21769;SDS011;11046;49.558;8.674;2023-08-06T08:08:30;1.73;;;0.68;;
21769;SDS011;11046;49.558;8.674;2023-08-06T08:11:31;1.02;;;0.60;;
21769;SDS011;11046;49.558;8.674;2023-08-06T08:14:32;0.70;;;0.52;;
21769;SDS011;11046;49.558;8.674;2023-08-06T08:17:35;1.63;;;0.55;;
21769;SDS011;11046;49.558;8.674;2023-08-06T08:20:36;1.15;;;0.52;;
21769;SDS011;11046;49.558;8.674;2023-08-06T08:23:36;2.15;;;0.90;;
21769;SDS011;11046;49.558;8.674;2023-08-06T08:26:39;2.17;;;0.70;;
21769;SDS011;11046;49.558;8.674;2023-08-06T08:29:39;3.35;;;0.80;;
21769;SDS011;11046;49.558;8.674;2023-08-06T08:32:40;1.80;;;0.65;;
21769;SDS011;11046;49.558;8.674;2023-08-06T08:35:40;2.05;;;0.80;;
21769;SDS011;11046;49.558;8.674;2023-08-06T08:38:41;1.10;;;0.90;;
21769;SDS011;11046;49.558;8.674;2023-08-06T08:41:41;0.90;;;0.63;;
21769;SDS011;11046;49.558;8.674;2023-08-06T08:44:42;1.35;;;0.70;;
21769;SDS011;11046;49.558;8.674;2023-08-06T08:47:44;1.58;;;0.60;;
21769;SDS011;11046;49.558;8.674;2023-08-06T08:50:47;1.33;;;0.50;;
21769;SDS011;11046;49.558;8.674;2023-08-06T08:53:48;0.63;;;0.50;;
21769;SDS011;11046;49.558;8.674;2023-08-06T08:56:52;1.00;;;0.68;;
21769;SDS011;11046;49.558;8.674;2023-08-06T08:59:55;0.40;;;0.40;;
21769;SDS011;11046;49.558;8.674;2023-08-06T09:02:55;0.60;;;0.50;;
21769;SDS011;11046;49.558;8.674;2023-08-06T09:06:00;0.70;;;0.68;;
21769;SDS011;11046;49.558;8.674;2023-08-06T09:09:08;1.38;;;0.50;;
21769;SDS011;11046;49.558;8.674;2023-08-06T09:12:13;0.85;;;0.57;;
21769;SDS011;11046;49.558;8.674;2023-08-06T09:15:15;0.47;;;0.45;;
21769;SDS011;11046;49.558;8.674;2023-08-06T09:18:21;2.08;;;0.57;;
21769;SDS011;11046;49.558;8.674;2023-08-06T09:21:29;0.57;;;0.52;;
21769;SDS011;11046;49.558;8.674;2023-08-06T09:24:29;1.08;;;0.60;;
21769;SDS011;11046;49.558;8.674;2023-08-06T09:27:30;1.13;;;0.88;;
21769;SDS011;11046;49.558;8.674;2023-08-06T09:30:31;1.40;;;0.50;;
21769;SDS011;11046;49.558;8.674;2023-08-06T09:33:35;0.55;;;0.55;;
21769;SDS011;11046;49.558;8.674;2023-08-06T09:36:39;2.38;;;0.80;;
21769;SDS011;11046;49.558;8.674;2023-08-06T09:39:41;0.82;;;0.75;;
21769;SDS011;11046;49.558;8.674;2023-08-06T09:42:42;5.55;;;0.70;;
21769;SDS011;11046;49.558;8.674;2023-08-06T09:45:43;0.73;;;0.47;;
21769;SDS011;11046;49.558;8.674;2023-08-06T09:48:45;2.25;;;0.70;;
21769;SDS011;11046;49.558;8.674;2023-08-06T09:51:46;0.80;;;0.80;;
21769;SDS011;11046;49.558;8.674;2023-08-06T09:54:52;0.93;;;0.60;;
21769;SDS011;11046;49.558;8.674;2023-08-06T09:57:54;1.67;;;0.50;;
21769;SDS011;11046;49.558;8.674;2023-08-06T10:00:55;0.47;;;0.47;;
21769;SDS011;11046;49.558;8.674;2023-08-06T10:03:57;0.63;;;0.60;;
21769;SDS011;11046;49.558;8.674;2023-08-06T10:06:58;4.43;;;0.60;;
21769;SDS011;11046;49.558;8.674;2023-08-06T10:10:00;1.25;;;0.60;;
21769;SDS011;11046;49.558;8.674;2023-08-06T10:13:01;1.30;;;0.90;;
21769;SDS011;11046;49.558;8.674;2023-08-06T10:16:04;0.93;;;0.60;;
21769;SDS011;11046;49.558;8.674;2023-08-06T10:19:05;0.73;;;0.60;;
21769;SDS011;11046;49.558;8.674;2023-08-06T10:22:13;1.60;;;1.08;;
21769;SDS011;11046;49.558;8.674;2023-08-06T10:25:18;1.55;;;1.23;;
21769;SDS011;11046;49.558;8.674;2023-08-06T10:28:18;0.88;;;0.52;;
21769;SDS011;11046;49.558;8.674;2023-08-06T10:31:19;0.50;;;0.50;;
21769;SDS011;11046;49.558;8.674;2023-08-06T10:34:20;0.60;;;0.60;;
21769;SDS011;11046;49.558;8.674;2023-08-06T10:37:21;0.50;;;0.50;;
21769;SDS011;11046;49.558;8.674;2023-08-06T10:40:23;0.85;;;0.40;;
21769;SDS011;11046;49.558;8.674;2023-08-06T10:43:35;6.22;;;0.60;;
21769;SDS011;11046;49.558;8.674;2023-08-06T10:46:38;0.95;;;0.50;;
21769;SDS011;11046;49.558;8.674;2023-08-06T10:49:39;0.82;;;0.40;;
21769;SDS011;11046;49.558;8.674;2023-08-06T10:52:40;0.60;;;0.52;;
21769;SDS011;11046;49.558;8.674;2023-08-06T10:55:40;0.68;;;0.60;;
21769;SDS011;11046;49.558;8.674;2023-08-06T10:58:41;0.90;;;0.40;;
21769;SDS011;11046;49.558;8.674;2023-08-06T11:01:42;0.60;;;0.55;;
21769;SDS011;11046;49.558;8.674;2023-08-06T11:04:43;0.88;;;0.60;;
21769;SDS011;11046;49.558;8.674;2023-08-06T11:07:44;0.50;;;0.40;;
21769;SDS011;11046;49.558;8.674;2023-08-06T11:10:44;0.80;;;0.68;;
21769;SDS011;11046;49.558;8.674;2023-08-06T11:13:46;1.40;;;0.70;;
21769;SDS011;11046;49.558;8.674;2023-08-06T11:16:47;1.52;;;0.70;;
21769;SDS011;11046;49.558;8.674;2023-08-06T11:19:48;2.60;;;1.00;;
21769;SDS011;11046;49.558;8.674;2023-08-06T11:22:49;1.25;;;0.77;;
21769;SDS011;11046;49.558;8.674;2023-08-06T11:25:50;2.35;;;0.65;;
21769;SDS011;11046;49.558;8.674;2023-08-06T11:28:53;0.85;;;0.60;;
21769;SDS011;11046;49.558;8.674;2023-08-06T11:31:53;1.55;;;0.70;;
21769;SDS011;11046;49.558;8.674;2023-08-06T11:35:09;1.08;;;0.50;;
21769;SDS011;11046;49.558;8.674;2023-08-06T11:38:13;0.90;;;0.65;;
21769;SDS011;11046;49.558;8.674;2023-08-06T11:41:14;0.60;;;0.50;;
21769;SDS011;11046;49.558;8.674;2023-08-06T11:44:14;1.25;;;0.85;;
21769;SDS011;11046;49.558;8.674;2023-08-06T11:47:16;0.60;;;0.60;;
21769;SDS011;11046;49.558;8.674;2023-08-06T11:50:24;0.98;;;0.55;;
21769;SDS011;11046;49.558;8.674;2023-08-06T11:53:27;0.93;;;0.70;;
21769;SDS011;11046;49.558;8.674;2023-08-06T11:56:30;3.50;;;0.80;;
21769;SDS011;11046;49.558;8.674;2023-08-06T11:59:30;0.60;;;0.60;;
21769;SDS011;11046;49.558;8.674;2023-08-06T12:02:31;1.75;;;0.73;;
21769;SDS011;11046;49.558;8.674;2023-08-06T12:05:37;0.70;;;0.68;;
21769;SDS011;11046;49.558;8.674;2023-08-06T12:08:39;0.50;;;0.50;;
21769;SDS011;11046;49.558;8.674;2023-08-06T12:11:41;1.02;;;0.50;;
21769;SDS011;11046;49.558;8.674;2023-08-06T12:14:42;1.05;;;0.50;;
21769;SDS011;11046;49.558;8.674;2023-08-06T12:17:42;0.50;;;0.50;;
21769;SDS011;11046;49.558;8.674;2023-08-06T12:20:43;0.82;;;0.60;;
21769;SDS011;11046;49.558;8.674;2023-08-06T12:23:44;1.70;;;0.65;;
21769;SDS011;11046;49.558;8.674;2023-08-06T12:26:44;0.88;;;0.60;;
21769;SDS011;11046;49.558;8.674;2023-08-06T12:29:46;0.70;;;0.60;;
21769;SDS011;11046;49.558;8.674;2023-08-06T12:32:48;0.77;;;0.70;;
21769;SDS011;11046;49.558;8.674;2023-08-06T12:35:48;0.88;;;0.52;;
21769;SDS011;11046;49.558;8.674;2023-08-06T12:38:49;2.03;;;0.80;;
21769;SDS011;11046;49.558;8.674;2023-08-06T12:41:50;4.95;;;0.70;;
21769;SDS011;11046;49.558;8.674;2023-08-06T12:44:50;1.92;;;0.70;;
21769;SDS011;11046;49.558;8.674;2023-08-06T12:47:52;1.92;;;1.00;;
21769;SDS011;11046;49.558;8.674;2023-08-06T12:50:52;1.70;;;0.80;;
21769;SDS011;11046;49.558;8.674;2023-08-06T12:53:53;1.30;;;0.80;;
21769;SDS011;11046;49.558;8.674;2023-08-06T12:56:54;1.00;;;0.90;;
21769;SDS011;11046;49.558;8.674;2023-08-06T12:59:54;0.95;;;0.73;;
21769;SDS011;11046;49.558;8.674;2023-08-06T13:02:55;1.00;;;0.70;;
21769;SDS011;11046;49.558;8.674;2023-08-06T13:05:56;4.57;;;1.00;;
21769;SDS011;11046;49.558;8.674;2023-08-06T13:08:57;2.55;;;0.90;;
21769;SDS011;11046;49.558;8.674;2023-08-06T13:11:58;3.58;;;0.80;;
21769;SDS011;11046;49.558;8.674;2023-08-06T13:15:00;2.58;;;0.98;;
21769;SDS011;11046;49.558;8.674;2023-08-06T13:18:00;0.75;;;0.68;;
21769;SDS011;11046;49.558;8.674;2023-08-06T13:21:01;1.33;;;0.73;;
21769;SDS011;11046;49.558;8.674;2023-08-06T13:24:02;3.08;;;1.10;;
21769;SDS011;11046;49.558;8.674;2023-08-06T13:27:02;1.98;;;0.60;;
21769;SDS011;11046;49.558;8.674;2023-08-06T13:30:03;1.33;;;0.77;;
21769;SDS011;11046;49.558;8.674;2023-08-06T13:33:04;2.97;;;0.80;;
21769;SDS011;11046;49.558;8.674;2023-08-06T13:36:06;1.08;;;0.80;;
21769;SDS011;11046;49.558;8.674;2023-08-06T13:39:07;1.30;;;0.70;;
21769;SDS011;11046;49.558;8.674;2023-08-06T13:42:07;1.67;;;0.70;;
21769;SDS011;11046;49.558;8.674;2023-08-06T13:45:09;1.20;;;0.50;;
21769;SDS011;11046;49.558;8.674;2023-08-06T13:48:10;1.67;;;0.60;;
21769;SDS011;11046;49.558;8.674;2023-08-06T13:51:11;2.58;;;0.80;;
21769;SDS011;11046;49.558;8.674;2023-08-06T13:54:12;1.13;;;0.57;;
21769;SDS011;11046;49.558;8.674;2023-08-06T13:57:12;1.00;;;0.63;;
21769;SDS011;11046;49.558;8.674;2023-08-06T14:00:13;1.08;;;0.70;;
21769;SDS011;11046;49.558;8.674;2023-08-06T14:03:14;1.83;;;0.70;;
21769;SDS011;11046;49.558;8.674;2023-08-06T14:06:14;2.05;;;0.77;;
21769;SDS011;11046;49.558;8.674;2023-08-06T14:09:15;1.13;;;0.70;;
21769;SDS011;11046;49.558;8.674;2023-08-06T14:12:18;0.75;;;0.52;;
21769;SDS011;11046;49.558;8.674;2023-08-06T14:15:19;1.52;;;0.80;;
21769;SDS011;11046;49.558;8.674;2023-08-06T14:18:19;0.90;;;0.60;;
21769;SDS011;11046;49.558;8.674;2023-08-06T14:21:20;0.65;;;0.55;;
21769;SDS011;11046;49.558;8.674;2023-08-06T14:24:21;1.73;;;1.08;;
21769;SDS011;11046;49.558;8.674;2023-08-06T14:27:22;3.60;;;0.80;;
21769;SDS011;11046;49.558;8.674;2023-08-06T14:30:22;0.90;;;0.70;;
21769;SDS011;11046;49.558;8.674;2023-08-06T14:33:23;3.70;;;0.82;;
21769;SDS011;11046;49.558;8.674;2023-08-06T14:36:24;4.43;;;0.68;;
21769;SDS011;11046;49.558;8.674;2023-08-06T14:39:26;2.17;;;0.80;;
21769;SDS011;11046;49.558;8.674;2023-08-06T14:42:26;0.50;;;0.50;;
21769;SDS011;11046;49.558;8.674;2023-08-06T14:45:27;1.27;;;0.60;;
21769;SDS011;11046;49.558;8.674;2023-08-06T14:48:27;1.20;;;0.70;;
21769;SDS011;11046;49.558;8.674;2023-08-06T14:51:28;1.33;;;0.70;;
21769;SDS011;11046;49.558;8.674;2023-08-06T14:54:28;0.90;;;0.55;;
21769;SDS011;11046;49.558;8.674;2023-08-06T14:57:29;2.72;;;0.70;;
21769;SDS011;11046;49.558;8.674;2023-08-06T15:00:31;2.30;;;0.98;;
21769;SDS011;11046;49.558;8.674;2023-08-06T15:03:31;1.48;;;0.70;;
21769;SDS011;11046;49.558;8.674;2023-08-06T15:06:33;2.17;;;0.85;;
21769;SDS011;11046;49.558;8.674;2023-08-06T15:09:34;1.83;;;0.98;;
21769;SDS011;11046;49.558;8.674;2023-08-06T15:12:34;1.42;;;0.70;;
21769;SDS011;11046;49.558;8.674;2023-08-06T15:15:35;7.82;;;1.02;;
21769;SDS011;11046;49.558;8.674;2023-08-06T15:18:36;0.88;;;0.70;;
21769;SDS011;11046;49.558;8.674;2023-08-06T15:21:37;2.25;;;0.70;;
21769;SDS011;11046;49.558;8.674;2023-08-06T15:24:37;2.15;;;0.75;;
21769;SDS011;11046;49.558;8.674;2023-08-06T15:27:41;2.03;;;0.80;;
21769;SDS011;11046;49.558;8.674;2023-08-06T15:30:45;3.30;;;0.77;;
21769;SDS011;11046;49.558;8.674;2023-08-06T15:33:49;0.77;;;0.70;;
21769;SDS011;11046;49.558;8.674;2023-08-06T15:36:50;2.72;;;0.95;;
21769;SDS011;11046;49.558;8.674;2023-08-06T15:39:51;1.35;;;0.90;;
21769;SDS011;11046;49.558;8.674;2023-08-06T15:42:52;1.55;;;0.85;;
21769;SDS011;11046;49.558;8.674;2023-08-06T15:45:52;0.82;;;0.73;;
21769;SDS011;11046;49.558;8.674;2023-08-06T15:48:53;1.35;;;0.70;;
21769;SDS011;11046;49.558;8.674;2023-08-06T15:51:53;1.58;;;0.90;;
21769;SDS011;11046;49.558;8.674;2023-08-06T15:54:54;2.47;;;0.80;;
21769;SDS011;11046;49.558;8.674;2023-08-06T15:57:54;0.75;;;0.70;;
21769;SDS011;11046;49.558;8.674;2023-08-06T16:00:55;1.30;;;0.63;;
21769;SDS011;11046;49.558;8.674;2023-08-06T16:03:55;0.70;;;0.60;;
21769;SDS011;11046;49.558;8.674;2023-08-06T16:06:56;1.02;;;0.75;;
21769;SDS011;11046;49.558;8.674;2023-08-06T16:09:58;1.75;;;0.70;;
21769;SDS011;11046;49.558;8.674;2023-08-06T16:12:58;1.40;;;0.80;;
21769;SDS011;11046;49.558;8.674;2023-08-06T16:15:59;1.00;;;0.77;;
21769;SDS011;11046;49.558;8.674;2023-08-06T16:19:01;0.98;;;0.70;;
21769;SDS011;11046;49.558;8.674;2023-08-06T16:22:02;3.25;;;0.85;;
21769;SDS011;11046;49.558;8.674;2023-08-06T16:25:03;1.77;;;1.05;;
21769;SDS011;11046;49.558;8.674;2023-08-06T16:28:04;3.08;;;0.75;;
21769;SDS011;11046;49.558;8.674;2023-08-06T16:31:04;1.85;;;0.60;;
21769;SDS011;11046;49.558;8.674;2023-08-06T16:34:05;2.13;;;0.75;;
21769;SDS011;11046;49.558;8.674;2023-08-06T16:37:06;1.02;;;0.73;;
21769;SDS011;11046;49.558;8.674;2023-08-06T16:40:06;2.10;;;0.70;;
21769;SDS011;11046;49.558;8.674;2023-08-06T16:43:09;0.85;;;0.80;;
21769;SDS011;11046;49.558;8.674;2023-08-06T16:46:10;1.85;;;0.80;;
21769;SDS011;11046;49.558;8.674;2023-08-06T16:49:10;1.40;;;0.95;;
21769;SDS011;11046;49.558;8.674;2023-08-06T16:52:11;1.67;;;0.90;;
21769;SDS011;11046;49.558;8.674;2023-08-06T16:55:11;1.88;;;0.80;;
21769;SDS011;11046;49.558;8.674;2023-08-06T16:58:14;2.13;;;1.15;;
21769;SDS011;11046;49.558;8.674;2023-08-06T17:01:15;2.25;;;1.00;;
21769;SDS011;11046;49.558;8.674;2023-08-06T17:04:15;1.17;;;1.02;;
21769;SDS011;11046;49.558;8.674;2023-08-06T17:07:16;1.13;;;0.95;;
21769;SDS011;11046;49.558;8.674;2023-08-06T17:10:17;1.15;;;1.05;;
21769;SDS011;11046;49.558;8.674;2023-08-06T17:13:20;2.33;;;1.00;;
21769;SDS011;11046;49.558;8.674;2023-08-06T17:16:20;1.92;;;1.00;;
21769;SDS011;11046;49.558;8.674;2023-08-06T17:19:21;3.70;;;1.15;;
21769;SDS011;11046;49.558;8.674;2023-08-06T17:22:22;7.68;;;1.13;;
21769;SDS011;11046;49.558;8.674;2023-08-06T17:25:23;1.67;;;1.30;;
21769;SDS011;11046;49.558;8.674;2023-08-06T17:28:24;1.63;;;1.10;;
21769;SDS011;11046;49.558;8.674;2023-08-06T17:31:24;3.03;;;1.00;;
21769;SDS011;11046;49.558;8.674;2023-08-06T17:34:25;3.60;;;1.20;;
21769;SDS011;11046;49.558;8.674;2023-08-06T17:37:27;3.40;;;1.10;;
21769;SDS011;11046;49.558;8.674;2023-08-06T17:40:28;1.25;;;0.98;;
21769;SDS011;11046;49.558;8.674;2023-08-06T17:43:29;2.67;;;1.25;;
21769;SDS011;11046;49.558;8.674;2023-08-06T17:46:29;4.10;;;1.17;;
21769;SDS011;11046;49.558;8.674;2023-08-06T17:49:30;2.60;;;1.08;;
21769;SDS011;11046;49.558;8.674;2023-08-06T17:52:31;1.95;;;1.20;;
21769;SDS011;11046;49.558;8.674;2023-08-06T17:55:32;3.72;;;1.10;;
21769;SDS011;11046;49.558;8.674;2023-08-06T17:58:32;1.38;;;0.98;;
21769;SDS011;11046;49.558;8.674;2023-08-06T18:01:33;1.60;;;0.98;;
21769;SDS011;11046;49.558;8.674;2023-08-06T18:04:33;1.98;;;0.88;;
21769;SDS011;11046;49.558;8.674;2023-08-06T18:07:34;3.78;;;1.50;;
21769;SDS011;11046;49.558;8.674;2023-08-06T18:10:36;2.47;;;1.13;;
21769;SDS011;11046;49.558;8.674;2023-08-06T18:13:37;3.03;;;1.20;;